Time;durP1;ratioP1;P1;durP2;ratioP2;P2;SDS_P1;SDS_P2;PMS_P1;PMS_P2;Temp;Humidity;BMP_temperature;BMP_pressure;BME280_temperature;BME280_humidity;BME280_pressure;Samples;Min_cycle;Max_cycle;Signal;HPM_P1;HPM_P2
2023/05/11 00:02:14;;;;;;;7.80;5.60;;;;;;;;;;5053330;28;20132;-73
2023/05/11 00:04:40;;;;;;;6.53;4.97;;;;;;;;;;5052977;28;20041;-73
2023/05/11 00:07:06;;;;;;;13.85;5.40;;;;;;;;;;5052945;28;20041;-73
2023/05/11 00:09:33;;;;;;;27.13;6.18;;;;;;;;;;5053122;28;20056;-73
2023/05/11 00:12:00;;;;;;;6.28;4.50;;;;;;;;;;5062702;28;20041;-73
2023/05/11 00:14:26;;;;;;;6.10;4.80;;;;;;;;;;5035761;28;20056;-73
2023/05/11 00:16:52;;;;;;;5.00;3.78;;;;;;;;;;5053476;28;20126;-73
2023/05/11 00:19:18;;;;;;;4.38;3.20;;;;;;;;;;5035326;28;20480;-73
2023/05/11 00:21:44;;;;;;;5.22;3.42;;;;;;;;;;5069854;28;20041;-73
2023/05/11 00:24:11;;;;;;;4.47;3.08;;;;;;;;;;5073184;28;20049;-73
2023/05/11 00:26:37;;;;;;;5.00;3.25;;;;;;;;;;5060703;28;20063;-73
2023/05/11 00:29:03;;;;;;;3.83;3.00;;;;;;;;;;5053390;28;20053;-73
2023/05/11 00:31:29;;;;;;;4.07;3.00;;;;;;;;;;5068389;28;20039;-73
2023/05/11 00:33:55;;;;;;;4.93;3.10;;;;;;;;;;5055102;28;20056;-73
2023/05/11 00:36:21;;;;;;;4.32;3.20;;;;;;;;;;5050913;28;20395;-73
2023/05/11 00:38:48;;;;;;;4.43;3.10;;;;;;;;;;5063792;28;20044;-73
2023/05/11 00:41:15;;;;;;;4.57;3.20;;;;;;;;;;5069854;28;20514;-73
2023/05/11 00:43:41;;;;;;;4.57;3.25;;;;;;;;;;5063110;28;20045;-73
2023/05/11 00:46:07;;;;;;;4.10;2.92;;;;;;;;;;5050012;28;20041;-73
2023/05/11 00:48:33;;;;;;;4.20;3.20;;;;;;;;;;5073286;28;20048;-73
2023/05/11 00:51:00;;;;;;;4.32;3.35;;;;;;;;;;5054704;28;20047;-73
2023/05/11 00:53:26;;;;;;;4.07;3.25;;;;;;;;;;5038469;28;20124;-73
2023/05/11 00:55:53;;;;;;;5.00;3.50;;;;;;;;;;5060855;28;20064;-73
2023/05/11 00:58:19;;;;;;;6.18;3.15;;;;;;;;;;5076479;28;20381;-73
2023/05/11 01:00:46;;;;;;;4.65;3.20;;;;;;;;;;5037987;28;20098;-73
2023/05/11 01:03:13;;;;;;;4.80;3.53;;;;;;;;;;5073150;28;20048;-73
2023/05/11 01:05:43;;;;;;;4.80;3.45;;;;;;;;;;5073527;28;20397;-73
2023/05/11 01:08:22;;;;;;;6.32;3.28;;;;;;;;;;5056208;28;20083;-73
2023/05/11 01:10:54;;;;;;;4.25;3.40;;;;;;;;;;5061213;28;20076;-73
2023/05/11 01:13:31;;;;;;;4.63;3.20;;;;;;;;;;5055920;28;20045;-73
2023/05/11 01:15:57;;;;;;;5.20;3.10;;;;;;;;;;5055877;28;20041;-73
2023/05/11 01:18:23;;;;;;;5.25;2.97;;;;;;;;;;5056313;28;20095;-73
2023/05/11 01:20:51;;;;;;;5.30;3.47;;;;;;;;;;5055731;28;20041;-73
2023/05/11 01:23:40;;;;;;;11.32;3.60;;;;;;;;;;5071982;28;20453;-73
2023/05/11 01:26:26;;;;;;;7.85;3.30;;;;;;;;;;5071823;28;20049;-73
2023/05/11 01:28:58;;;;;;;8.07;3.25;;;;;;;;;;5054610;28;20049;-73
2023/05/11 01:31:26;;;;;;;10.77;3.83;;;;;;;;;;5066479;28;20433;-73
2023/05/11 01:33:58;;;;;;;5.63;3.38;;;;;;;;;;5053555;28;20045;-73
2023/05/11 01:36:47;;;;;;;6.88;3.25;;;;;;;;;;5025187;28;20432;-73
2023/05/11 01:39:14;;;;;;;15.90;4.30;;;;;;;;;;5027568;28;20499;-73
2023/05/11 01:41:41;;;;;;;8.07;3.70;;;;;;;;;;5068895;28;20044;-73
2023/05/11 01:44:10;;;;;;;5.38;3.50;;;;;;;;;;5069835;28;20124;-73
2023/05/11 01:46:37;;;;;;;6.70;4.18;;;;;;;;;;5055833;28;20508;-73
2023/05/11 01:49:08;;;;;;;12.82;3.97;;;;;;;;;;5055323;28;20091;-73
2023/05/11 01:51:38;;;;;;;23.98;4.63;;;;;;;;;;5067632;28;20048;-73
2023/05/11 01:54:08;;;;;;;6.15;4.10;;;;;;;;;;5075095;28;20041;-73
2023/05/11 01:56:35;;;;;;;8.32;4.60;;;;;;;;;;5073873;28;20049;-73
2023/05/11 01:59:02;;;;;;;23.50;5.30;;;;;;;;;;5075445;28;20036;-73
2023/05/11 02:01:28;;;;;;;20.88;5.30;;;;;;;;;;5063760;28;20051;-73
2023/05/11 02:03:54;;;;;;;26.23;5.35;;;;;;;;;;5055274;28;20396;-73
2023/05/11 02:06:22;;;;;;;38.15;6.38;;;;;;;;;;5067429;28;20104;-73
2023/05/11 02:08:48;;;;;;;25.73;5.13;;;;;;;;;;5060501;28;20053;-73
2023/05/11 02:11:15;;;;;;;54.05;6.93;;;;;;;;;;5059574;28;20052;-73
2023/05/11 02:13:43;;;;;;;66.82;7.60;;;;;;;;;;5078863;28;20044;-73
2023/05/11 02:16:10;;;;;;;34.55;5.35;;;;;;;;;;5063695;28;20056;-73
2023/05/11 02:18:38;;;;;;;37.75;5.95;;;;;;;;;;5021049;28;20082;-73
2023/05/11 02:21:08;;;;;;;59.33;6.57;;;;;;;;;;5054998;28;20051;-73
2023/05/11 02:23:37;;;;;;;31.45;5.35;;;;;;;;;;5055157;28;20045;-73
2023/05/11 02:26:05;;;;;;;64.38;6.43;;;;;;;;;;5064461;28;20520;-73
2023/05/11 02:28:31;;;;;;;30.65;4.32;;;;;;;;;;5056582;28;20483;-73
2023/05/11 02:31:00;;;;;;;29.90;4.30;;;;;;;;;;5073795;28;20043;-73
2023/05/11 02:33:34;;;;;;;25.52;4.40;;;;;;;;;;5056566;28;20052;-73
2023/05/11 02:36:01;;;;;;;52.25;6.30;;;;;;;;;;5065272;28;20056;-73
2023/05/11 02:38:32;;;;;;;30.90;4.80;;;;;;;;;;5062765;28;20044;-73
2023/05/11 02:41:00;;;;;;;52.45;6.10;;;;;;;;;;5052878;28;20130;-73
2023/05/11 02:43:28;;;;;;;56.65;6.50;;;;;;;;;;5054311;28;20045;-73
2023/05/11 02:45:58;;;;;;;67.18;7.28;;;;;;;;;;5054396;28;20041;-72
2023/05/11 02:48:26;;;;;;;20.05;4.30;;;;;;;;;;5036648;28;20045;-73
2023/05/11 02:50:54;;;;;;;48.53;5.28;;;;;;;;;;5053812;28;20479;-73
2023/05/11 02:53:21;;;;;;;25.20;4.25;;;;;;;;;;5054216;28;20037;-73
2023/05/11 02:55:48;;;;;;;23.52;4.15;;;;;;;;;;5060452;28;20076;-73
2023/05/11 02:58:14;;;;;;;32.28;5.25;;;;;;;;;;5057542;28;20055;-73
2023/05/11 03:00:40;;;;;;;53.28;6.15;;;;;;;;;;5067218;28;20049;-73
2023/05/11 03:03:06;;;;;;;67.53;6.65;;;;;;;;;;5052444;28;20498;-73
2023/05/11 03:05:32;;;;;;;44.22;4.90;;;;;;;;;;5054014;28;20098;-73
2023/05/11 03:07:59;;;;;;;34.67;5.15;;;;;;;;;;5053919;28;20048;-73
2023/05/11 03:10:26;;;;;;;23.38;4.10;;;;;;;;;;5050028;28;20048;-73
2023/05/11 03:12:52;;;;;;;122.72;8.05;;;;;;;;;;5053454;28;20037;-72
2023/05/11 03:15:19;;;;;;;70.38;6.38;;;;;;;;;;5059959;28;20127;-73
2023/05/11 03:17:45;;;;;;;50.10;5.35;;;;;;;;;;5056196;28;20055;-75
2023/05/11 03:20:12;;;;;;;92.85;6.97;;;;;;;;;;5064030;28;20055;-76
2023/05/11 03:22:38;;;;;;;50.05;5.93;;;;;;;;;;5053978;28;20045;-73
2023/05/11 03:25:05;;;;;;;134.68;9.55;;;;;;;;;;5053644;28;20052;-73
2023/05/11 03:27:32;;;;;;;133.02;9.07;;;;;;;;;;5053883;28;20045;-73
2023/05/11 03:30:00;;;;;;;46.67;4.90;;;;;;;;;;5053959;28;20395;-73
2023/05/11 03:32:26;;;;;;;59.08;5.63;;;;;;;;;;5053518;28;20132;-73
2023/05/11 03:34:52;;;;;;;59.58;6.10;;;;;;;;;;5046940;28;20048;-73
2023/05/11 03:37:19;;;;;;;56.92;5.93;;;;;;;;;;5047920;28;20048;-73
2023/05/11 03:39:46;;;;;;;60.03;5.55;;;;;;;;;;5067353;28;20049;-73
2023/05/11 03:42:14;;;;;;;89.43;7.50;;;;;;;;;;5053739;28;20106;-73
2023/05/11 03:44:40;;;;;;;115.32;8.35;;;;;;;;;;5053499;28;20432;-73
2023/05/11 03:47:07;;;;;;;91.63;8.20;;;;;;;;;;5053525;28;20041;-73
2023/05/11 03:49:33;;;;;;;71.10;7.40;;;;;;;;;;5054131;28;20052;-73
2023/05/11 03:52:00;;;;;;;120.28;8.70;;;;;;;;;;5053728;28;20037;-73
2023/05/11 03:54:26;;;;;;;70.38;7.07;;;;;;;;;;5053403;28;20384;-73
2023/05/11 03:56:52;;;;;;;60.17;7.32;;;;;;;;;;5072156;28;20048;-73
2023/05/11 03:59:18;;;;;;;148.32;9.13;;;;;;;;;;5053880;28;20536;-73
2023/05/11 04:01:44;;;;;;;145.32;9.15;;;;;;;;;;5066765;28;20040;-73
2023/05/11 04:04:10;;;;;;;120.95;9.55;;;;;;;;;;5053234;28;20049;-73
2023/05/11 04:06:36;;;;;;;133.50;10.50;;;;;;;;;;5035573;28;20479;-73
2023/05/11 04:09:05;;;;;;;56.95;6.93;;;;;;;;;;5052834;28;20115;-73
2023/05/11 04:11:35;;;;;;;35.13;6.22;;;;;;;;;;5069867;28;20055;-73
2023/05/11 04:14:01;;;;;;;65.22;6.97;;;;;;;;;;5073410;28;20040;-73
2023/05/11 04:16:27;;;;;;;52.95;6.65;;;;;;;;;;5057781;28;20044;-73
2023/05/11 04:18:53;;;;;;;20.35;5.13;;;;;;;;;;5059618;28;20433;-73
2023/05/11 04:21:19;;;;;;;119.60;10.52;;;;;;;;;;5041227;28;20048;-73
2023/05/11 04:23:45;;;;;;;89.53;9.10;;;;;;;;;;5074398;28;20040;-73
2023/05/11 04:26:11;;;;;;;83.75;8.65;;;;;;;;;;5057223;28;20086;-73
2023/05/11 04:28:37;;;;;;;103.72;9.23;;;;;;;;;;5056997;28;20052;-73
2023/05/11 04:31:03;;;;;;;71.55;8.02;;;;;;;;;;5058565;28;20039;-73
2023/05/11 04:33:29;;;;;;;45.78;6.63;;;;;;;;;;5039217;28;20052;-73
2023/05/11 04:35:57;;;;;;;38.05;6.20;;;;;;;;;;5056903;28;20549;-73
2023/05/11 04:38:23;;;;;;;24.60;5.38;;;;;;;;;;5056695;28;20056;-73
2023/05/11 04:40:49;;;;;;;24.70;5.50;;;;;;;;;;5066251;28;20041;-73
2023/05/11 04:43:16;;;;;;;18.23;5.00;;;;;;;;;;5076653;28;20048;-73
2023/05/11 04:45:46;;;;;;;28.90;4.85;;;;;;;;;;5076465;28;20040;-73
2023/05/11 04:48:12;;;;;;;7.38;3.95;;;;;;;;;;5076468;28;20049;-73
2023/05/11 04:50:38;;;;;;;7.38;4.13;;;;;;;;;;5040897;28;20058;-73
2023/05/11 04:53:05;;;;;;;6.20;4.22;;;;;;;;;;5058636;28;20045;-73
2023/05/11 04:55:31;;;;;;;5.22;4.15;;;;;;;;;;5062574;28;20438;-73
2023/05/11 04:57:57;;;;;;;11.20;4.25;;;;;;;;;;5056405;28;20040;-73
2023/05/11 05:00:23;;;;;;;23.17;5.03;;;;;;;;;;5056085;28;20045;-73
2023/05/11 05:02:52;;;;;;;31.38;5.53;;;;;;;;;;5022052;28;20391;-73
2023/05/11 05:05:18;;;;;;;24.92;5.72;;;;;;;;;;5056222;28;20044;-73
2023/05/11 05:07:44;;;;;;;23.77;5.43;;;;;;;;;;5038008;28;20407;-73
2023/05/11 05:10:11;;;;;;;74.13;7.57;;;;;;;;;;5066886;28;20049;-73
2023/05/11 05:12:37;;;;;;;99.90;8.48;;;;;;;;;;5056157;28;20045;-73
2023/05/11 05:15:04;;;;;;;74.05;6.93;;;;;;;;;;5038202;28;20098;-73
2023/05/11 05:17:30;;;;;;;27.27;5.60;;;;;;;;;;5038956;28;20467;-73
2023/05/11 05:19:59;;;;;;;14.77;4.97;;;;;;;;;;5056127;28;20060;-73
2023/05/11 05:22:25;;;;;;;10.85;4.65;;;;;;;;;;5056691;28;20529;-73
2023/05/11 05:24:51;;;;;;;6.32;4.05;;;;;;;;;;5053657;28;20048;-73
2023/05/11 05:27:17;;;;;;;7.28;5.25;;;;;;;;;;5080809;28;20080;-72
2023/05/11 05:29:43;;;;;;;8.90;4.93;;;;;;;;;;5076132;28;20052;-73
2023/05/11 05:32:10;;;;;;;7.35;4.82;;;;;;;;;;5067132;28;20040;-73
2023/05/11 05:34:36;;;;;;;8.70;4.65;;;;;;;;;;5076175;28;20499;-73
2023/05/11 05:37:02;;;;;;;9.98;5.15;;;;;;;;;;5057721;28;20041;-73
2023/05/11 05:39:28;;;;;;;11.65;5.88;;;;;;;;;;5075217;28;20044;-73
2023/05/11 05:41:54;;;;;;;11.63;5.40;;;;;;;;;;5054913;28;20060;-73
2023/05/11 05:44:20;;;;;;;10.85;4.90;;;;;;;;;;5054213;28;20049;-73
2023/05/11 05:46:46;;;;;;;9.68;5.50;;;;;;;;;;5050065;28;20101;-73
2023/05/11 05:49:12;;;;;;;9.88;5.70;;;;;;;;;;5075561;28;20051;-73
2023/05/11 05:51:38;;;;;;;9.23;5.53;;;;;;;;;;5063350;28;20048;-73
2023/05/11 05:54:04;;;;;;;7.43;5.78;;;;;;;;;;5055364;28;20041;-73
2023/05/11 05:56:31;;;;;;;7.57;5.70;;;;;;;;;;5055398;28;20041;-73
2023/05/11 05:58:57;;;;;;;8.82;6.50;;;;;;;;;;5055495;28;20126;-73
2023/05/11 06:01:23;;;;;;;9.00;6.53;;;;;;;;;;5065776;28;20083;-73
2023/05/11 06:03:50;;;;;;;8.48;6.40;;;;;;;;;;5067543;28;20045;-73
2023/05/11 06:06:16;;;;;;;8.45;6.43;;;;;;;;;;5055173;28;20057;-73
2023/05/11 06:08:42;;;;;;;10.30;6.68;;;;;;;;;;5054911;28;20060;-74
2023/05/11 06:11:09;;;;;;;9.80;6.65;;;;;;;;;;5055711;28;20048;-73
2023/05/11 06:13:35;;;;;;;9.32;7.07;;;;;;;;;;5064712;28;20109;-74
2023/05/11 06:16:01;;;;;;;9.50;6.55;;;;;;;;;;5070085;28;20083;-73
2023/05/11 06:18:27;;;;;;;12.00;7.85;;;;;;;;;;5054750;28;20487;-73
2023/05/11 06:20:54;;;;;;;11.50;8.00;;;;;;;;;;5057005;28;20045;-73
2023/05/11 06:23:20;;;;;;;11.27;7.90;;;;;;;;;;5056054;28;20041;-73
2023/05/11 06:25:46;;;;;;;11.38;7.90;;;;;;;;;;5061941;28;20040;-73
2023/05/11 06:28:12;;;;;;;12.10;8.13;;;;;;;;;;5073600;28;20044;-73
2023/05/11 06:30:38;;;;;;;15.23;8.60;;;;;;;;;;5073807;28;20048;-73
2023/05/11 06:33:04;;;;;;;12.25;8.00;;;;;;;;;;5054667;28;20052;-73
2023/05/11 06:35:30;;;;;;;13.73;9.18;;;;;;;;;;5059111;28;20052;-73
2023/05/11 06:37:56;;;;;;;13.20;8.95;;;;;;;;;;5069593;28;20041;-73
2023/05/11 06:40:22;;;;;;;11.23;8.25;;;;;;;;;;5054586;28;20041;-73
2023/05/11 06:42:48;;;;;;;11.38;8.18;;;;;;;;;;5071190;28;20071;-73
2023/05/11 06:45:15;;;;;;;12.00;8.80;;;;;;;;;;5072162;28;20068;-73
2023/05/11 06:47:41;;;;;;;12.65;9.18;;;;;;;;;;5074397;28;20052;-73
2023/05/11 06:50:07;;;;;;;12.40;9.30;;;;;;;;;;5074227;28;20041;-73
2023/05/11 06:52:36;;;;;;;11.43;8.70;;;;;;;;;;5072637;28;20040;-73
2023/05/11 06:55:03;;;;;;;15.13;9.40;;;;;;;;;;5074194;28;20124;-73
2023/05/11 06:57:29;;;;;;;12.05;9.23;;;;;;;;;;5054415;28;20049;-73
2023/05/11 06:59:55;;;;;;;11.55;8.68;;;;;;;;;;5054107;28;20045;-73
2023/05/11 07:02:21;;;;;;;11.93;9.55;;;;;;;;;;5053584;28;20043;-73
2023/05/11 07:04:47;;;;;;;12.35;8.85;;;;;;;;;;5057833;28;20116;-73
2023/05/11 07:07:13;;;;;;;12.85;9.68;;;;;;;;;;5065734;28;20041;-73
2023/05/11 07:09:39;;;;;;;13.75;10.30;;;;;;;;;;5053966;28;20049;-73
2023/05/11 07:12:05;;;;;;;16.20;11.25;;;;;;;;;;5054058;28;20052;-73
2023/05/11 07:14:31;;;;;;;17.98;11.57;;;;;;;;;;5051990;28;20049;-73
2023/05/11 07:16:57;;;;;;;19.40;12.13;;;;;;;;;;5072123;28;20044;-73
2023/05/11 07:19:24;;;;;;;19.83;12.65;;;;;;;;;;5060400;28;20110;-73
2023/05/11 07:21:51;;;;;;;20.38;13.32;;;;;;;;;;5061697;28;20059;-73
2023/05/11 07:24:17;;;;;;;20.27;12.85;;;;;;;;;;5073125;28;20044;-73
2023/05/11 07:26:43;;;;;;;21.90;13.02;;;;;;;;;;5060726;28;20051;-74
2023/05/11 07:29:09;;;;;;;17.73;12.07;;;;;;;;;;5054943;28;20045;-74
2023/05/11 07:31:35;;;;;;;18.67;11.95;;;;;;;;;;5058325;28;20049;-73
2023/05/11 07:34:01;;;;;;;16.25;11.18;;;;;;;;;;5054049;28;20086;-74
2023/05/11 07:36:28;;;;;;;17.02;11.77;;;;;;;;;;5070352;28;20040;-73
2023/05/11 07:38:56;;;;;;;16.48;10.73;;;;;;;;;;5044066;28;20051;-75
2023/05/11 07:41:25;;;;;;;14.00;9.23;;;;;;;;;;5042397;28;20045;-75
2023/05/11 07:43:51;;;;;;;12.73;8.10;;;;;;;;;;5067888;28;20059;-75
2023/05/11 07:46:17;;;;;;;12.40;8.95;;;;;;;;;;5060966;28;20100;-79
2023/05/11 07:48:44;;;;;;;13.65;8.80;;;;;;;;;;5037043;28;20482;-75
2023/05/11 07:51:10;;;;;;;11.93;8.40;;;;;;;;;;5072659;28;20060;-75
2023/05/11 07:53:37;;;;;;;10.35;7.43;;;;;;;;;;5037886;28;20051;-75
2023/05/11 07:56:03;;;;;;;11.05;7.60;;;;;;;;;;5074263;28;20036;-76
2023/05/11 07:58:29;;;;;;;9.55;7.53;;;;;;;;;;5067209;28;20055;-75
2023/05/11 08:00:56;;;;;;;8.70;6.75;;;;;;;;;;5048483;28;20055;-75
2023/05/11 08:03:22;;;;;;;8.80;6.65;;;;;;;;;;5059979;28;20049;-75
2023/05/11 08:05:48;;;;;;;9.55;6.63;;;;;;;;;;5066798;28;20048;-75
2023/05/11 08:08:14;;;;;;;9.18;6.60;;;;;;;;;;5050395;28;20081;-75
2023/05/11 08:10:41;;;;;;;7.72;5.80;;;;;;;;;;5063937;28;20079;-76
2023/05/11 08:13:07;;;;;;;8.15;5.40;;;;;;;;;;5054281;28;20052;-75
2023/05/11 08:15:33;;;;;;;6.13;5.20;;;;;;;;;;5047294;28;20449;-75
2023/05/11 08:18:00;;;;;;;5.10;4.45;;;;;;;;;;5048475;28;20375;-75
2023/05/11 08:20:26;;;;;;;6.20;5.03;;;;;;;;;;5069333;28;20106;-75
2023/05/11 08:22:52;;;;;;;5.93;5.05;;;;;;;;;;5056478;28;20049;-75
2023/05/11 08:25:18;;;;;;;6.80;4.60;;;;;;;;;;5075116;28;20494;-75
2023/05/11 08:27:44;;;;;;;5.00;4.50;;;;;;;;;;5049858;28;20048;-75
2023/05/11 08:30:11;;;;;;;5.40;4.30;;;;;;;;;;5051244;28;20053;-75
2023/05/11 08:32:38;;;;;;;5.30;4.63;;;;;;;;;;5039621;28;20510;-75
2023/05/11 08:35:04;;;;;;;6.07;5.10;;;;;;;;;;5060690;28;20060;-75
2023/05/11 08:37:30;;;;;;;6.07;5.47;;;;;;;;;;5046801;28;20464;-76
2023/05/11 08:39:56;;;;;;;7.65;5.95;;;;;;;;;;5055229;28;20091;-75
2023/05/11 08:42:24;;;;;;;7.38;5.65;;;;;;;;;;5068219;28;20044;-75
2023/05/11 08:44:51;;;;;;;8.77;5.95;;;;;;;;;;5061848;28;20045;-75
2023/05/11 08:47:17;;;;;;;8.77;6.40;;;;;;;;;;5072149;28;20040;-75
2023/05/11 08:49:44;;;;;;;7.72;5.78;;;;;;;;;;5052934;28;20056;-75
2023/05/11 08:52:10;;;;;;;8.40;5.93;;;;;;;;;;5056495;28;20040;-75
2023/05/11 08:54:36;;;;;;;8.65;6.28;;;;;;;;;;5063303;28;20107;-76
2023/05/11 08:57:02;;;;;;;8.65;6.13;;;;;;;;;;5057933;28;20049;-75
2023/05/11 08:59:28;;;;;;;7.68;5.90;;;;;;;;;;5042447;28;20049;-75
2023/05/11 09:01:55;;;;;;;7.72;5.90;;;;;;;;;;5059415;28;20107;-75
2023/05/11 09:04:22;;;;;;;8.30;5.70;;;;;;;;;;5050240;28;20060;-75
2023/05/11 09:06:49;;;;;;;6.93;5.28;;;;;;;;;;5051322;28;20048;-75
2023/05/11 09:09:17;;;;;;;6.05;5.03;;;;;;;;;;5050872;28;20049;-75
2023/05/11 09:11:43;;;;;;;6.80;5.35;;;;;;;;;;5050608;28;20076;-76
2023/05/11 09:14:09;;;;;;;6.90;5.05;;;;;;;;;;5048267;28;20045;-75
2023/05/11 09:16:35;;;;;;;7.18;5.53;;;;;;;;;;5057158;28;20041;-75
2023/05/11 09:19:02;;;;;;;5.68;4.90;;;;;;;;;;5065633;28;20076;-75
2023/05/11 09:21:30;;;;;;;5.80;4.63;;;;;;;;;;5049422;28;20080;-75
2023/05/11 09:23:58;;;;;;;6.80;4.82;;;;;;;;;;5061180;28;20037;-75
2023/05/11 09:26:25;;;;;;;6.90;4.95;;;;;;;;;;5059837;28;20051;-77
2023/05/11 09:28:56;;;;;;;6.35;4.97;;;;;;;;;;5036338;28;20072;-75
2023/05/11 09:31:39;;;;;;;6.70;4.95;;;;;;;;;;5048578;28;20048;-77
2023/05/11 09:34:18;;;;;;;5.57;4.97;;;;;;;;;;5078497;28;20059;-77
2023/05/11 09:36:55;;;;;;;6.25;4.97;;;;;;;;;;5050416;28;20514;-75
2023/05/11 09:39:31;;;;;;;7.60;5.05;;;;;;;;;;5070698;28;20051;-74
2023/05/11 09:42:17;;;;;;;5.20;4.68;;;;;;;;;;5071638;28;20049;-74
2023/05/11 09:44:44;;;;;;;5.00;4.47;;;;;;;;;;5061934;28;20040;-74
2023/05/11 09:47:11;;;;;;;4.82;4.15;;;;;;;;;;5062101;28;20147;-74
2023/05/11 09:49:38;;;;;;;4.28;3.80;;;;;;;;;;5069460;28;20057;-74
2023/05/11 09:52:04;;;;;;;4.45;4.05;;;;;;;;;;5067003;28;20548;-74
2023/05/11 09:54:30;;;;;;;4.93;4.03;;;;;;;;;;5057225;28;20069;-74
2023/05/11 09:56:59;;;;;;;4.63;4.13;;;;;;;;;;5055258;28;20379;-74
2023/05/11 09:59:36;;;;;;;5.13;4.60;;;;;;;;;;5065328;28;20090;-74
2023/05/11 10:02:18;;;;;;;5.15;4.32;;;;;;;;;;5063711;28;20491;-73
2023/05/11 10:04:45;;;;;;;4.65;4.05;;;;;;;;;;5056175;28;20037;-74
2023/05/11 10:07:11;;;;;;;5.13;4.30;;;;;;;;;;5069065;28;20614;-74
2023/05/11 10:09:37;;;;;;;5.82;3.80;;;;;;;;;;5052442;28;20517;-74
2023/05/11 10:12:05;;;;;;;4.93;4.05;;;;;;;;;;5039062;28;20073;-74
2023/05/11 10:14:31;;;;;;;4.30;3.90;;;;;;;;;;5064394;28;20047;-73
2023/05/11 10:16:58;;;;;;;4.80;4.30;;;;;;;;;;5058021;28;20383;-74
2023/05/11 10:19:24;;;;;;;4.60;4.10;;;;;;;;;;5070707;28;20044;-74
2023/05/11 10:21:51;;;;;;;5.57;4.20;;;;;;;;;;5069303;28;20037;-74
2023/05/11 10:24:18;;;;;;;5.07;4.30;;;;;;;;;;5062891;28;20052;-74
2023/05/11 10:26:44;;;;;;;5.05;4.38;;;;;;;;;;5052545;28;20048;-74
2023/05/11 10:29:11;;;;;;;6.07;4.18;;;;;;;;;;5061580;28;20037;-74
2023/05/11 10:31:37;;;;;;;4.28;3.63;;;;;;;;;;5060554;28;20047;-74
2023/05/11 10:34:03;;;;;;;5.20;3.75;;;;;;;;;;5051937;28;20049;-74
2023/05/11 10:36:30;;;;;;;3.58;3.22;;;;;;;;;;5059438;28;20041;-73
2023/05/11 10:38:56;;;;;;;5.15;3.90;;;;;;;;;;5062154;28;20445;-74
2023/05/11 10:41:31;;;;;;;5.47;4.93;;;;;;;;;;5055991;28;20494;-74
2023/05/11 10:44:12;;;;;;;7.97;5.33;;;;;;;;;;5066077;28;20141;-74
2023/05/11 10:46:50;;;;;;;6.25;5.18;;;;;;;;;;5058305;28;20053;-74
2023/05/11 10:49:22;;;;;;;6.75;6.05;;;;;;;;;;5060428;28;20043;-74
2023/05/11 10:52:00;;;;;;;8.40;6.80;;;;;;;;;;5046777;28;20052;-76
2023/05/11 10:54:41;;;;;;;6.30;5.70;;;;;;;;;;5062825;28;20118;-74
2023/05/11 10:57:27;;;;;;;7.32;6.63;;;;;;;;;;5050510;28;20041;-74
2023/05/11 11:00:09;;;;;;;6.00;5.30;;;;;;;;;;5047430;28;20511;-75
2023/05/11 11:02:36;;;;;;;6.60;5.88;;;;;;;;;;5063985;28;20117;-75
2023/05/11 11:05:04;;;;;;;7.45;5.70;;;;;;;;;;5057825;28;20047;-74
2023/05/11 11:07:53;;;;;;;5.03;4.53;;;;;;;;;;5054008;28;20068;-75
2023/05/11 11:10:31;;;;;;;7.03;4.55;;;;;;;;;;5053352;28;20455;-74
2023/05/11 11:13:04;;;;;;;5.55;5.03;;;;;;;;;;5063173;28;20049;-74
2023/05/11 11:15:49;;;;;;;5.13;4.57;;;;;;;;;;5048581;28;20041;-74
2023/05/11 11:18:20;;;;;;;5.90;5.32;;;;;;;;;;5053874;28;20488;-74
2023/05/11 11:20:47;;;;;;;6.88;6.20;;;;;;;;;;5054116;28;20564;-74
2023/05/11 11:23:32;;;;;;;8.35;5.70;;;;;;;;;;5056804;28;20407;-74
2023/05/11 11:25:59;;;;;;;6.43;5.70;;;;;;;;;;5073004;28;20049;-74
2023/05/11 11:28:25;;;;;;;6.15;5.55;;;;;;;;;;5059824;28;20050;-74
2023/05/11 11:31:10;;;;;;;6.45;5.85;;;;;;;;;;5048852;28;20079;-74
2023/05/11 11:33:36;;;;;;;7.43;6.50;;;;;;;;;;5071088;28;20399;-74
2023/05/11 11:36:02;;;;;;;6.93;6.32;;;;;;;;;;5071026;28;20044;-74
2023/05/11 11:38:28;;;;;;;7.45;6.10;;;;;;;;;;5058186;28;20040;-74
2023/05/11 11:40:55;;;;;;;6.20;5.60;;;;;;;;;;5050621;28;20049;-74
2023/05/11 11:43:25;;;;;;;6.95;6.03;;;;;;;;;;5071317;28;20418;-74
2023/05/11 11:45:58;;;;;;;6.82;5.75;;;;;;;;;;5062191;28;20044;-74
2023/05/11 11:48:30;;;;;;;6.38;5.78;;;;;;;;;;5053458;28;20041;-74
2023/05/11 11:51:12;;;;;;;5.85;5.22;;;;;;;;;;5053372;28;20072;-74
2023/05/11 11:53:39;;;;;;;5.20;4.65;;;;;;;;;;5059575;28;20466;-74
2023/05/11 11:56:07;;;;;;;4.78;4.38;;;;;;;;;;5066818;28;20049;-74
2023/05/11 11:58:43;;;;;;;5.45;4.95;;;;;;;;;;5064296;28;20041;-74
2023/05/11 12:01:11;;;;;;;5.70;5.18;;;;;;;;;;5072572;28;20044;-74
2023/05/11 12:03:38;;;;;;;5.75;5.15;;;;;;;;;;5052349;28;20064;-75
2023/05/11 12:06:06;;;;;;;5.75;5.20;;;;;;;;;;5050771;28;20106;-74
2023/05/11 12:08:33;;;;;;;5.60;5.05;;;;;;;;;;5038441;28;20411;-74
2023/05/11 12:11:00;;;;;;;5.88;5.25;;;;;;;;;;5051386;28;20048;-74
2023/05/11 12:13:26;;;;;;;6.95;5.28;;;;;;;;;;5046727;28;20124;-74
2023/05/11 12:16:11;;;;;;;6.05;4.90;;;;;;;;;;5038731;28;20048;-74
2023/05/11 12:18:37;;;;;;;5.85;5.05;;;;;;;;;;5036964;28;20041;-74
2023/05/11 12:21:03;;;;;;;6.55;5.85;;;;;;;;;;5028943;28;20045;-74
2023/05/11 12:23:30;;;;;;;5.10;4.35;;;;;;;;;;5050095;28;20178;-74
2023/05/11 12:26:02;;;;;;;4.85;4.35;;;;;;;;;;5041620;28;20127;-74
2023/05/11 12:28:28;;;;;;;5.07;4.43;;;;;;;;;;5033207;28;20514;-74
2023/05/11 12:30:54;;;;;;;4.35;3.95;;;;;;;;;;5044010;28;20124;-74
2023/05/11 12:33:21;;;;;;;4.53;4.05;;;;;;;;;;5033735;28;20053;-74
2023/05/11 12:35:51;;;;;;;4.80;4.30;;;;;;;;;;5034023;28;20128;-74
2023/05/11 12:38:17;;;;;;;4.03;3.42;;;;;;;;;;5032530;28;20049;-75
2023/05/11 12:40:49;;;;;;;4.75;4.03;;;;;;;;;;5016158;28;20080;-74
2023/05/11 12:43:22;;;;;;;4.78;4.22;;;;;;;;;;5050553;28;20037;-74
2023/05/11 12:45:48;;;;;;;4.57;3.55;;;;;;;;;;5037057;28;20092;-75
2023/05/11 12:48:14;;;;;;;4.85;4.18;;;;;;;;;;5019162;28;20111;-74
2023/05/11 12:50:41;;;;;;;4.93;4.10;;;;;;;;;;5036926;28;20120;-74
2023/05/11 12:53:14;;;;;;;5.00;4.50;;;;;;;;;;5052997;28;20147;-74
2023/05/11 12:55:41;;;;;;;4.25;3.30;;;;;;;;;;5046001;28;20042;-74
2023/05/11 12:58:10;;;;;;;4.75;4.32;;;;;;;;;;5041411;28;20052;-75
2023/05/11 13:00:36;;;;;;;5.15;4.65;;;;;;;;;;5051812;28;20364;-74
2023/05/11 13:03:02;;;;;;;4.13;3.72;;;;;;;;;;5032523;28;20500;-75
2023/05/11 13:05:28;;;;;;;5.20;4.25;;;;;;;;;;5022602;28;20409;-74
2023/05/11 13:08:04;;;;;;;5.82;4.35;;;;;;;;;;5059425;28;20063;-75
2023/05/11 13:10:33;;;;;;;4.43;3.80;;;;;;;;;;5070548;28;20037;-74
2023/05/11 13:12:59;;;;;;;5.97;4.50;;;;;;;;;;5063997;28;20455;-75
2023/05/11 13:15:27;;;;;;;5.03;4.25;;;;;;;;;;5050832;28;20517;-74
2023/05/11 13:17:57;;;;;;;4.88;4.38;;;;;;;;;;5063736;28;20056;-74
2023/05/11 13:20:31;;;;;;;5.10;4.50;;;;;;;;;;5063847;28;20045;-74
2023/05/11 13:23:08;;;;;;;4.60;4.13;;;;;;;;;;5033856;28;20127;-74
2023/05/11 13:25:53;;;;;;;4.55;4.15;;;;;;;;;;5045222;28;20379;-74
2023/05/11 13:28:21;;;;;;;4.53;4.13;;;;;;;;;;5056017;28;20076;-74
2023/05/11 13:30:47;;;;;;;5.53;4.22;;;;;;;;;;5063816;28;20384;-75
2023/05/11 13:33:13;;;;;;;10.73;4.03;;;;;;;;;;5068774;28;20501;-75
2023/05/11 13:35:40;;;;;;;4.47;4.00;;;;;;;;;;5056168;28;20037;-75
2023/05/11 13:38:06;;;;;;;8.68;5.70;;;;;;;;;;5066894;28;20036;-75
2023/05/11 13:40:32;;;;;;;9.20;5.05;;;;;;;;;;5073365;28;20079;-75
2023/05/11 13:42:59;;;;;;;5.55;4.28;;;;;;;;;;5066466;28;20491;-74
2023/05/11 13:45:25;;;;;;;5.20;4.20;;;;;;;;;;5067395;28;20091;-74
2023/05/11 13:47:51;;;;;;;5.05;4.13;;;;;;;;;;5075413;28;20048;-78
2023/05/11 13:50:17;;;;;;;3.90;3.60;;;;;;;;;;5073286;28;20041;-75
2023/05/11 13:52:43;;;;;;;7.30;4.90;;;;;;;;;;5055509;28;20044;-75
2023/05/11 13:55:09;;;;;;;8.60;5.18;;;;;;;;;;5056480;28;20037;-74
2023/05/11 13:57:35;;;;;;;8.85;5.10;;;;;;;;;;5041978;28;20037;-74
2023/05/11 14:00:02;;;;;;;5.35;3.30;;;;;;;;;;5024840;28;20131;-74
2023/05/11 14:02:28;;;;;;;6.07;4.47;;;;;;;;;;5074775;28;20075;-74
2023/05/11 14:04:54;;;;;;;4.63;4.13;;;;;;;;;;5059048;28;20491;-78
2023/05/11 14:07:20;;;;;;;6.80;4.38;;;;;;;;;;5060857;28;20055;-74
2023/05/11 14:09:49;;;;;;;6.93;4.03;;;;;;;;;;5059648;28;20049;-74
2023/05/11 14:12:15;;;;;;;4.75;3.80;;;;;;;;;;5066012;28;20052;-74
2023/05/11 14:14:41;;;;;;;5.30;3.67;;;;;;;;;;5071463;28;20471;-74
2023/05/11 14:17:10;;;;;;;3.70;3.20;;;;;;;;;;5057179;28;20068;-74
2023/05/11 14:19:36;;;;;;;3.47;3.13;;;;;;;;;;5059191;28;20135;-74
2023/05/11 14:22:02;;;;;;;5.80;3.28;;;;;;;;;;5074677;28;20106;-74
2023/05/11 14:24:28;;;;;;;3.85;2.90;;;;;;;;;;5074934;28;20087;-74
2023/05/11 14:26:54;;;;;;;3.70;3.00;;;;;;;;;;5072150;28;20067;-74
2023/05/11 14:29:20;;;;;;;3.22;2.70;;;;;;;;;;5073877;28;20051;-74
2023/05/11 14:31:46;;;;;;;4.53;2.90;;;;;;;;;;5068688;28;20131;-74
2023/05/11 14:34:12;;;;;;;3.55;3.20;;;;;;;;;;5073868;28;20119;-74
2023/05/11 14:36:39;;;;;;;6.00;3.38;;;;;;;;;;5064901;28;20094;-78
2023/05/11 14:39:05;;;;;;;3.78;3.00;;;;;;;;;;5055779;28;20045;-74
2023/05/11 14:41:31;;;;;;;5.50;3.63;;;;;;;;;;5036103;28;20131;-74
2023/05/11 14:44:00;;;;;;;4.78;3.30;;;;;;;;;;5055687;28;20059;-74